sensor_id;sensor_type;location;lat;lon;timestamp;temperature;humidity
31729;DHT22;18309;43.658;1.312;2023-01-24T00:00:34;2.90;99.90
31729;DHT22;18309;43.658;1.312;2023-01-24T00:03:00;2.90;99.90
31729;DHT22;18309;43.658;1.312;2023-01-24T00:05:26;2.90;99.90
31729;DHT22;18309;43.658;1.312;2023-01-24T00:07:51;3.00;99.90
31729;DHT22;18309;43.658;1.312;2023-01-24T00:10:17;3.00;99.90
31729;DHT22;18309;43.658;1.312;2023-01-24T00:12:43;3.00;99.90
31729;DHT22;18309;43.658;1.312;2023-01-24T00:15:09;3.00;99.90
31729;DHT22;18309;43.658;1.312;2023-01-24T00:17:35;2.90;99.90
31729;DHT22;18309;43.658;1.312;2023-01-24T00:20:01;2.90;99.90
31729;DHT22;18309;43.658;1.312;2023-01-24T00:22:27;2.90;99.90
31729;DHT22;18309;43.658;1.312;2023-01-24T00:24:52;3.00;99.90
31729;DHT22;18309;43.658;1.312;2023-01-24T00:27:18;2.90;99.90
31729;DHT22;18309;43.658;1.312;2023-01-24T00:29:44;3.00;99.90
31729;DHT22;18309;43.658;1.312;2023-01-24T00:32:10;2.90;99.90
31729;DHT22;18309;43.658;1.312;2023-01-24T00:34:35;3.00;99.90
31729;DHT22;18309;43.658;1.312;2023-01-24T00:37:01;3.00;99.90
31729;DHT22;18309;43.658;1.312;2023-01-24T00:39:27;3.00;99.90
31729;DHT22;18309;43.658;1.312;2023-01-24T00:41:53;2.90;99.90
31729;DHT22;18309;43.658;1.312;2023-01-24T00:44:18;3.00;99.90
31729;DHT22;18309;43.658;1.312;2023-01-24T00:46:44;3.00;99.90
31729;DHT22;18309;43.658;1.312;2023-01-24T00:49:10;3.00;99.90
31729;DHT22;18309;43.658;1.312;2023-01-24T00:51:35;3.00;99.90
31729;DHT22;18309;43.658;1.312;2023-01-24T00:54:01;3.00;99.90
31729;DHT22;18309;43.658;1.312;2023-01-24T00:56:27;3.00;99.90
31729;DHT22;18309;43.658;1.312;2023-01-24T00:58:52;3.00;99.90
31729;DHT22;18309;43.658;1.312;2023-01-24T01:01:18;3.00;99.90
31729;DHT22;18309;43.658;1.312;2023-01-24T01:03:44;3.00;99.90
31729;DHT22;18309;43.658;1.312;2023-01-24T01:06:13;3.00;99.90
31729;DHT22;18309;43.658;1.312;2023-01-24T01:08:39;3.00;99.90
31729;DHT22;18309;43.658;1.312;2023-01-24T01:11:06;3.00;99.90
31729;DHT22;18309;43.658;1.312;2023-01-24T01:13:32;3.00;99.90
31729;DHT22;18309;43.658;1.312;2023-01-24T01:16:18;3.00;99.90
31729;DHT22;18309;43.658;1.312;2023-01-24T01:18:47;3.00;99.90
31729;DHT22;18309;43.658;1.312;2023-01-24T01:21:16;3.00;99.90
31729;DHT22;18309;43.658;1.312;2023-01-24T01:23:42;2.90;99.90
31729;DHT22;18309;43.658;1.312;2023-01-24T01:26:15;3.00;99.90
31729;DHT22;18309;43.658;1.312;2023-01-24T01:28:41;3.00;99.90
31729;DHT22;18309;43.658;1.312;2023-01-24T01:31:07;3.00;99.90
31729;DHT22;18309;43.658;1.312;2023-01-24T01:33:33;3.00;99.90
31729;DHT22;18309;43.658;1.312;2023-01-24T01:35:58;3.00;99.90
31729;DHT22;18309;43.658;1.312;2023-01-24T01:38:24;3.00;99.90
31729;DHT22;18309;43.658;1.312;2023-01-24T01:40:53;3.00;99.90
31729;DHT22;18309;43.658;1.312;2023-01-24T01:43:22;2.90;99.90
31729;DHT22;18309;43.658;1.312;2023-01-24T01:45:51;3.00;99.90
31729;DHT22;18309;43.658;1.312;2023-01-24T01:48:42;3.00;99.90
31729;DHT22;18309;43.658;1.312;2023-01-24T01:53:43;2.90;99.90
31729;DHT22;18309;43.658;1.312;2023-01-24T01:56:16;2.90;99.90
31729;DHT22;18309;43.658;1.312;2023-01-24T01:58:42;2.90;99.90
31729;DHT22;18309;43.658;1.312;2023-01-24T02:01:09;2.90;99.90
31729;DHT22;18309;43.658;1.312;2023-01-24T02:03:40;2.90;99.90
31729;DHT22;18309;43.658;1.312;2023-01-24T02:06:15;2.90;99.90
31729;DHT22;18309;43.658;1.312;2023-01-24T02:08:44;2.90;99.90
31729;DHT22;18309;43.658;1.312;2023-01-24T02:11:11;2.90;99.90
31729;DHT22;18309;43.658;1.312;2023-01-24T02:13:57;2.90;99.90
31729;DHT22;18309;43.658;1.312;2023-01-24T02:16:43;2.90;99.90
31729;DHT22;18309;43.658;1.312;2023-01-24T02:19:21;2.90;99.90
31729;DHT22;18309;43.658;1.312;2023-01-24T02:21:50;2.90;99.90
31729;DHT22;18309;43.658;1.312;2023-01-24T02:24:25;2.90;99.90
31729;DHT22;18309;43.658;1.312;2023-01-24T02:26:52;2.90;99.90
31729;DHT22;18309;43.658;1.312;2023-01-24T02:29:19;2.90;99.90
31729;DHT22;18309;43.658;1.312;2023-01-24T02:31:53;2.90;99.90
31729;DHT22;18309;43.658;1.312;2023-01-24T02:34:19;2.90;99.90
31729;DHT22;18309;43.658;1.312;2023-01-24T02:36:46;2.90;99.90
31729;DHT22;18309;43.658;1.312;2023-01-24T02:39:20;2.90;99.90
31729;DHT22;18309;43.658;1.312;2023-01-24T02:42:23;3.00;99.90
31729;DHT22;18309;43.658;1.312;2023-01-24T02:44:43;2.90;99.90
31729;DHT22;18309;43.658;1.312;2023-01-24T02:47:11;3.00;99.90
31729;DHT22;18309;43.658;1.312;2023-01-24T02:49:37;2.90;99.90
31729;DHT22;18309;43.658;1.312;2023-01-24T02:52:03;2.90;99.90
31729;DHT22;18309;43.658;1.312;2023-01-24T02:54:47;2.90;99.90
31729;DHT22;18309;43.658;1.312;2023-01-24T02:57:13;2.90;99.90
31729;DHT22;18309;43.658;1.312;2023-01-24T02:59:57;2.90;99.90
31729;DHT22;18309;43.658;1.312;2023-01-24T03:02:23;2.90;99.90
31729;DHT22;18309;43.658;1.312;2023-01-24T03:04:49;2.90;99.90
31729;DHT22;18309;43.658;1.312;2023-01-24T03:07:17;2.90;99.90
31729;DHT22;18309;43.658;1.312;2023-01-24T03:09:42;2.90;99.90
31729;DHT22;18309;43.658;1.312;2023-01-24T03:12:14;2.90;99.90
31729;DHT22;18309;43.658;1.312;2023-01-24T03:14:58;2.90;99.90
31729;DHT22;18309;43.658;1.312;2023-01-24T03:17:42;2.90;99.90
31729;DHT22;18309;43.658;1.312;2023-01-24T03:20:26;2.90;99.90
31729;DHT22;18309;43.658;1.312;2023-01-24T03:23:11;2.90;99.90
31729;DHT22;18309;43.658;1.312;2023-01-24T03:25:56;2.90;99.90
31729;DHT22;18309;43.658;1.312;2023-01-24T03:28:41;2.90;99.90
31729;DHT22;18309;43.658;1.312;2023-01-24T03:31:26;2.90;99.90
31729;DHT22;18309;43.658;1.312;2023-01-24T03:34:10;2.90;99.90
31729;DHT22;18309;43.658;1.312;2023-01-24T03:36:54;2.90;99.90
31729;DHT22;18309;43.658;1.312;2023-01-24T03:39:20;2.90;99.90
31729;DHT22;18309;43.658;1.312;2023-01-24T03:42:04;2.90;99.90
31729;DHT22;18309;43.658;1.312;2023-01-24T03:44:29;2.90;99.90
31729;DHT22;18309;43.658;1.312;2023-01-24T03:46:55;2.90;99.90
31729;DHT22;18309;43.658;1.312;2023-01-24T03:49:21;2.90;99.90
31729;DHT22;18309;43.658;1.312;2023-01-24T03:52:05;2.90;99.90
31729;DHT22;18309;43.658;1.312;2023-01-24T03:54:49;2.90;99.90
31729;DHT22;18309;43.658;1.312;2023-01-24T03:57:15;2.90;99.90
31729;DHT22;18309;43.658;1.312;2023-01-24T03:59:41;2.90;99.90
31729;DHT22;18309;43.658;1.312;2023-01-24T04:02:06;2.90;99.90
31729;DHT22;18309;43.658;1.312;2023-01-24T04:04:32;2.90;99.90
31729;DHT22;18309;43.658;1.312;2023-01-24T04:07:18;2.90;99.90
31729;DHT22;18309;43.658;1.312;2023-01-24T04:09:44;2.90;99.90
31729;DHT22;18309;43.658;1.312;2023-01-24T04:12:10;2.90;99.90
31729;DHT22;18309;43.658;1.312;2023-01-24T04:14:35;2.90;99.90
31729;DHT22;18309;43.658;1.312;2023-01-24T04:17:01;2.90;99.90
31729;DHT22;18309;43.658;1.312;2023-01-24T04:19:27;2.90;99.90
31729;DHT22;18309;43.658;1.312;2023-01-24T04:21:52;2.90;99.90
31729;DHT22;18309;43.658;1.312;2023-01-24T04:24:18;2.90;99.90
31729;DHT22;18309;43.658;1.312;2023-01-24T04:26:44;2.90;99.90
31729;DHT22;18309;43.658;1.312;2023-01-24T04:29:09;2.90;99.90
31729;DHT22;18309;43.658;1.312;2023-01-24T04:31:35;2.90;99.90
31729;DHT22;18309;43.658;1.312;2023-01-24T04:34:01;2.90;99.90
31729;DHT22;18309;43.658;1.312;2023-01-24T04:36:26;2.90;99.90
31729;DHT22;18309;43.658;1.312;2023-01-24T04:38:52;2.90;99.90
31729;DHT22;18309;43.658;1.312;2023-01-24T04:41:20;3.00;99.90
31729;DHT22;18309;43.658;1.312;2023-01-24T04:43:45;2.90;99.90
31729;DHT22;18309;43.658;1.312;2023-01-24T04:46:11;2.90;99.90
31729;DHT22;18309;43.658;1.312;2023-01-24T04:48:44;2.90;99.90
31729;DHT22;18309;43.658;1.312;2023-01-24T04:51:10;3.00;99.90
31729;DHT22;18309;43.658;1.312;2023-01-24T04:53:39;3.00;99.90
31729;DHT22;18309;43.658;1.312;2023-01-24T04:56:06;2.90;99.90
31729;DHT22;18309;43.658;1.312;2023-01-24T04:58:33;3.00;99.90
31729;DHT22;18309;43.658;1.312;2023-01-24T05:00:59;3.00;99.90
31729;DHT22;18309;43.658;1.312;2023-01-24T05:03:25;3.00;99.90
31729;DHT22;18309;43.658;1.312;2023-01-24T05:05:51;3.00;99.90
31729;DHT22;18309;43.658;1.312;2023-01-24T05:08:17;3.00;99.90
31729;DHT22;18309;43.658;1.312;2023-01-24T05:10:43;3.00;99.90
31729;DHT22;18309;43.658;1.312;2023-01-24T05:13:09;3.00;99.90
31729;DHT22;18309;43.658;1.312;2023-01-24T05:15:35;3.00;99.90
31729;DHT22;18309;43.658;1.312;2023-01-24T05:18:01;3.00;99.90
31729;DHT22;18309;43.658;1.312;2023-01-24T05:20:27;3.00;99.90
31729;DHT22;18309;43.658;1.312;2023-01-24T05:22:56;3.00;99.90
31729;DHT22;18309;43.658;1.312;2023-01-24T05:25:21;3.00;99.90
31729;DHT22;18309;43.658;1.312;2023-01-24T05:27:47;3.00;99.90
31729;DHT22;18309;43.658;1.312;2023-01-24T05:30:13;3.00;99.90
31729;DHT22;18309;43.658;1.312;2023-01-24T05:32:39;3.00;99.90
31729;DHT22;18309;43.658;1.312;2023-01-24T05:35:05;3.00;99.90
31729;DHT22;18309;43.658;1.312;2023-01-24T05:37:31;3.00;99.90
31729;DHT22;18309;43.658;1.312;2023-01-24T05:39:57;3.00;99.90
31729;DHT22;18309;43.658;1.312;2023-01-24T05:42:22;3.00;99.90
31729;DHT22;18309;43.658;1.312;2023-01-24T05:44:48;3.00;99.90
31729;DHT22;18309;43.658;1.312;2023-01-24T05:47:14;3.00;99.90
31729;DHT22;18309;43.658;1.312;2023-01-24T05:49:39;3.00;99.90
31729;DHT22;18309;43.658;1.312;2023-01-24T05:52:08;3.00;99.90
31729;DHT22;18309;43.658;1.312;2023-01-24T05:54:34;3.10;99.90
31729;DHT22;18309;43.658;1.312;2023-01-24T05:56:59;3.10;99.90
31729;DHT22;18309;43.658;1.312;2023-01-24T05:59:25;3.00;99.90
31729;DHT22;18309;43.658;1.312;2023-01-24T06:01:51;3.10;99.90
31729;DHT22;18309;43.658;1.312;2023-01-24T06:04:16;3.10;99.90
31729;DHT22;18309;43.658;1.312;2023-01-24T06:06:42;3.10;99.90
31729;DHT22;18309;43.658;1.312;2023-01-24T06:09:08;3.00;99.90
31729;DHT22;18309;43.658;1.312;2023-01-24T06:11:34;3.00;99.90
31729;DHT22;18309;43.658;1.312;2023-01-24T06:13:59;3.00;99.90
31729;DHT22;18309;43.658;1.312;2023-01-24T06:16:26;3.10;99.90
31729;DHT22;18309;43.658;1.312;2023-01-24T06:18:52;3.10;99.90
31729;DHT22;18309;43.658;1.312;2023-01-24T06:24:18;3.10;99.90
31729;DHT22;18309;43.658;1.312;2023-01-24T06:26:45;3.10;99.90
31729;DHT22;18309;43.658;1.312;2023-01-24T06:29:11;3.10;99.90
31729;DHT22;18309;43.658;1.312;2023-01-24T06:32:02;3.10;99.90
31729;DHT22;18309;43.658;1.312;2023-01-24T06:40:11;3.10;99.90
31729;DHT22;18309;43.658;1.312;2023-01-24T06:42:38;3.10;99.90
31729;DHT22;18309;43.658;1.312;2023-01-24T06:45:05;3.10;99.90
31729;DHT22;18309;43.658;1.312;2023-01-24T06:47:31;3.00;99.90
31729;DHT22;18309;43.658;1.312;2023-01-24T06:49:56;3.10;99.90
31729;DHT22;18309;43.658;1.312;2023-01-24T06:52:22;3.10;99.90
31729;DHT22;18309;43.658;1.312;2023-01-24T06:54:48;3.10;99.90
31729;DHT22;18309;43.658;1.312;2023-01-24T06:57:13;3.10;99.90
31729;DHT22;18309;43.658;1.312;2023-01-24T06:59:39;3.10;99.90
31729;DHT22;18309;43.658;1.312;2023-01-24T07:02:05;3.10;99.90
31729;DHT22;18309;43.658;1.312;2023-01-24T07:04:31;3.10;99.90
31729;DHT22;18309;43.658;1.312;2023-01-24T07:06:57;3.10;99.90
31729;DHT22;18309;43.658;1.312;2023-01-24T07:09:23;3.10;99.90
31729;DHT22;18309;43.658;1.312;2023-01-24T07:11:49;3.10;99.90
31729;DHT22;18309;43.658;1.312;2023-01-24T07:14:18;3.10;99.90
31729;DHT22;18309;43.658;1.312;2023-01-24T07:16:44;3.10;99.90
31729;DHT22;18309;43.658;1.312;2023-01-24T07:19:15;3.10;99.90
31729;DHT22;18309;43.658;1.312;2023-01-24T07:21:43;3.10;99.90
31729;DHT22;18309;43.658;1.312;2023-01-24T07:24:15;3.10;99.90
31729;DHT22;18309;43.658;1.312;2023-01-24T07:26:41;3.10;99.90
31729;DHT22;18309;43.658;1.312;2023-01-24T07:29:07;3.10;99.90
31729;DHT22;18309;43.658;1.312;2023-01-24T07:31:33;3.10;99.90
31729;DHT22;18309;43.658;1.312;2023-01-24T07:33:59;3.10;99.90
31729;DHT22;18309;43.658;1.312;2023-01-24T07:36:25;3.10;99.90
31729;DHT22;18309;43.658;1.312;2023-01-24T07:38:54;3.10;99.90
31729;DHT22;18309;43.658;1.312;2023-01-24T07:41:20;3.10;99.90
31729;DHT22;18309;43.658;1.312;2023-01-24T07:43:46;3.10;99.90
31729;DHT22;18309;43.658;1.312;2023-01-24T07:46:11;3.10;99.90
31729;DHT22;18309;43.658;1.312;2023-01-24T07:48:37;3.10;99.90
31729;DHT22;18309;43.658;1.312;2023-01-24T07:51:03;3.10;99.90
31729;DHT22;18309;43.658;1.312;2023-01-24T07:53:29;2.80;99.90
31729;DHT22;18309;43.658;1.312;2023-01-24T07:55:58;2.60;99.90
31729;DHT22;18309;43.658;1.312;2023-01-24T07:58:24;2.90;99.90
31729;DHT22;18309;43.658;1.312;2023-01-24T08:00:49;2.90;99.90
31729;DHT22;18309;43.658;1.312;2023-01-24T08:03:15;2.80;99.90
31729;DHT22;18309;43.658;1.312;2023-01-24T08:05:41;2.70;99.90
31729;DHT22;18309;43.658;1.312;2023-01-24T08:08:06;2.70;99.90
31729;DHT22;18309;43.658;1.312;2023-01-24T08:10:32;2.60;99.90
31729;DHT22;18309;43.658;1.312;2023-01-24T08:12:58;2.60;99.90
31729;DHT22;18309;43.658;1.312;2023-01-24T08:15:23;2.50;99.90
31729;DHT22;18309;43.658;1.312;2023-01-24T08:17:49;2.60;99.90
31729;DHT22;18309;43.658;1.312;2023-01-24T08:20:15;2.50;99.90
31729;DHT22;18309;43.658;1.312;2023-01-24T08:22:41;2.50;99.90
31729;DHT22;18309;43.658;1.312;2023-01-24T08:25:08;2.40;99.90
31729;DHT22;18309;43.658;1.312;2023-01-24T08:27:34;2.40;99.90
31729;DHT22;18309;43.658;1.312;2023-01-24T08:29:59;2.50;99.90
31729;DHT22;18309;43.658;1.312;2023-01-24T08:32:25;2.50;99.90
31729;DHT22;18309;43.658;1.312;2023-01-24T08:34:51;2.50;99.90
31729;DHT22;18309;43.658;1.312;2023-01-24T08:37:17;2.50;99.90
31729;DHT22;18309;43.658;1.312;2023-01-24T08:39:43;2.50;99.90
31729;DHT22;18309;43.658;1.312;2023-01-24T08:42:09;2.40;99.90
31729;DHT22;18309;43.658;1.312;2023-01-24T08:44:35;2.40;99.90
31729;DHT22;18309;43.658;1.312;2023-01-24T08:47:01;2.40;99.90
31729;DHT22;18309;43.658;1.312;2023-01-24T08:49:26;2.50;99.90
31729;DHT22;18309;43.658;1.312;2023-01-24T08:51:52;2.50;99.90
31729;DHT22;18309;43.658;1.312;2023-01-24T08:54:25;2.50;99.90
31729;DHT22;18309;43.658;1.312;2023-01-24T08:56:51;2.50;99.90
31729;DHT22;18309;43.658;1.312;2023-01-24T08:59:17;2.40;99.90
31729;DHT22;18309;43.658;1.312;2023-01-24T09:01:43;2.30;99.90
31729;DHT22;18309;43.658;1.312;2023-01-24T09:04:10;2.40;99.90
31729;DHT22;18309;43.658;1.312;2023-01-24T09:06:36;2.20;99.90
31729;DHT22;18309;43.658;1.312;2023-01-24T09:09:02;2.40;99.90
31729;DHT22;18309;43.658;1.312;2023-01-24T09:11:29;2.40;99.90
31729;DHT22;18309;43.658;1.312;2023-01-24T09:13:56;2.30;99.90
31729;DHT22;18309;43.658;1.312;2023-01-24T09:16:22;2.30;99.90
31729;DHT22;18309;43.658;1.312;2023-01-24T09:18:47;2.30;99.90
31729;DHT22;18309;43.658;1.312;2023-01-24T09:21:16;2.30;99.90
31729;DHT22;18309;43.658;1.312;2023-01-24T09:23:43;2.30;99.90
31729;DHT22;18309;43.658;1.312;2023-01-24T09:26:08;2.40;99.90
31729;DHT22;18309;43.658;1.312;2023-01-24T09:28:34;2.40;99.90
31729;DHT22;18309;43.658;1.312;2023-01-24T09:31:00;2.40;99.90
31729;DHT22;18309;43.658;1.312;2023-01-24T09:33:27;2.30;99.90
31729;DHT22;18309;43.658;1.312;2023-01-24T09:35:58;2.50;99.90
31729;DHT22;18309;43.658;1.312;2023-01-24T09:38:25;2.40;99.90
31729;DHT22;18309;43.658;1.312;2023-01-24T09:46:46;2.70;99.90
31729;DHT22;18309;43.658;1.312;2023-01-24T09:51:48;2.40;99.90
31729;DHT22;18309;43.658;1.312;2023-01-24T09:54:21;2.30;99.90
31729;DHT22;18309;43.658;1.312;2023-01-24T09:56:49;2.30;99.90
31729;DHT22;18309;43.658;1.312;2023-01-24T09:59:22;2.30;99.90
31729;DHT22;18309;43.658;1.312;2023-01-24T10:01:50;2.40;99.90
31729;DHT22;18309;43.658;1.312;2023-01-24T10:04:21;2.50;99.90
31729;DHT22;18309;43.658;1.312;2023-01-24T10:10:03;2.40;99.90
31729;DHT22;18309;43.658;1.312;2023-01-24T10:21:11;2.50;99.90
31729;DHT22;18309;43.658;1.312;2023-01-24T10:23:46;2.60;99.90
31729;DHT22;18309;43.658;1.312;2023-01-24T10:28:54;3.10;99.90
31729;DHT22;18309;43.658;1.312;2023-01-24T10:31:26;3.10;99.90
31729;DHT22;18309;43.658;1.312;2023-01-24T10:34:00;3.20;99.90
31729;DHT22;18309;43.658;1.312;2023-01-24T10:36:46;3.30;99.90
31729;DHT22;18309;43.658;1.312;2023-01-24T10:39:13;3.40;99.90
31729;DHT22;18309;43.658;1.312;2023-01-24T10:41:39;3.40;99.90
31729;DHT22;18309;43.658;1.312;2023-01-24T10:44:29;3.40;99.90
31729;DHT22;18309;43.658;1.312;2023-01-24T10:49:50;3.40;99.90
31729;DHT22;18309;43.658;1.312;2023-01-24T10:52:21;3.30;99.90
31729;DHT22;18309;43.658;1.312;2023-01-24T10:54:51;3.40;99.90
31729;DHT22;18309;43.658;1.312;2023-01-24T11:00:24;3.60;99.90
31729;DHT22;18309;43.658;1.312;2023-01-24T11:02:58;3.60;99.90
31729;DHT22;18309;43.658;1.312;2023-01-24T11:05:25;3.80;99.90
31729;DHT22;18309;43.658;1.312;2023-01-24T11:08:00;3.80;99.90
31729;DHT22;18309;43.658;1.312;2023-01-24T11:10:35;3.80;99.90
31729;DHT22;18309;43.658;1.312;2023-01-24T11:13:03;3.80;99.90
31729;DHT22;18309;43.658;1.312;2023-01-24T11:15:47;3.90;99.90
31729;DHT22;18309;43.658;1.312;2023-01-24T11:18:25;3.80;99.90
31729;DHT22;18309;43.658;1.312;2023-01-24T11:21:13;3.80;99.90
31729;DHT22;18309;43.658;1.312;2023-01-24T11:23:40;3.70;99.90
31729;DHT22;18309;43.658;1.312;2023-01-24T11:26:20;3.60;99.90
31729;DHT22;18309;43.658;1.312;2023-01-24T11:29:02;3.70;99.90
31729;DHT22;18309;43.658;1.312;2023-01-24T11:31:47;4.00;99.90
31729;DHT22;18309;43.658;1.312;2023-01-24T11:35:17;4.00;99.90
31729;DHT22;18309;43.658;1.312;2023-01-24T11:45:36;4.40;99.90
31729;DHT22;18309;43.658;1.312;2023-01-24T11:56:40;4.70;99.90
31729;DHT22;18309;43.658;1.312;2023-01-24T11:59:16;4.70;99.90
31729;DHT22;18309;43.658;1.312;2023-01-24T12:04:59;4.60;99.90
31729;DHT22;18309;43.658;1.312;2023-01-24T12:08:11;4.70;99.90
31729;DHT22;18309;43.658;1.312;2023-01-24T12:13:39;5.00;99.90
31729;DHT22;18309;43.658;1.312;2023-01-24T12:21:13;5.00;99.90
31729;DHT22;18309;43.658;1.312;2023-01-24T12:26:18;5.30;99.90
31729;DHT22;18309;43.658;1.312;2023-01-24T12:28:53;5.50;99.90
31729;DHT22;18309;43.658;1.312;2023-01-24T12:37:30;5.80;99.90
31729;DHT22;18309;43.658;1.312;2023-01-24T12:40:15;5.80;99.30
31729;DHT22;18309;43.658;1.312;2023-01-24T12:46:30;5.80;99.90
31729;DHT22;18309;43.658;1.312;2023-01-24T12:49:19;5.90;99.90
31729;DHT22;18309;43.658;1.312;2023-01-24T12:57:30;6.00;99.90
31729;DHT22;18309;43.658;1.312;2023-01-24T12:59:56;6.00;99.50
31729;DHT22;18309;43.658;1.312;2023-01-24T13:12:58;6.50;97.60
31729;DHT22;18309;43.658;1.312;2023-01-24T13:21:10;6.90;97.40
31729;DHT22;18309;43.658;1.312;2023-01-24T13:23:46;6.90;96.70
31729;DHT22;18309;43.658;1.312;2023-01-24T13:31:28;6.90;96.90
31729;DHT22;18309;43.658;1.312;2023-01-24T13:34:01;7.10;98.20
31729;DHT22;18309;43.658;1.312;2023-01-24T13:36:34;7.50;97.00
31729;DHT22;18309;43.658;1.312;2023-01-24T13:39:01;7.70;96.00
31729;DHT22;18309;43.658;1.312;2023-01-24T13:41:35;8.00;95.70
31729;DHT22;18309;43.658;1.312;2023-01-24T13:51:55;7.60;95.10
31729;DHT22;18309;43.658;1.312;2023-01-24T13:59:41;7.20;95.30
31729;DHT22;18309;43.658;1.312;2023-01-24T14:02:30;7.00;94.20
31729;DHT22;18309;43.658;1.312;2023-01-24T14:04:57;6.90;95.60
31729;DHT22;18309;43.658;1.312;2023-01-24T14:07:35;6.90;95.10
31729;DHT22;18309;43.658;1.312;2023-01-24T14:10:04;6.90;94.30
31729;DHT22;18309;43.658;1.312;2023-01-24T14:12:33;6.80;94.20
31729;DHT22;18309;43.658;1.312;2023-01-24T14:20:44;6.80;94.40
31729;DHT22;18309;43.658;1.312;2023-01-24T14:23:29;6.70;93.80
31729;DHT22;18309;43.658;1.312;2023-01-24T14:25:56;6.70;93.00
31729;DHT22;18309;43.658;1.312;2023-01-24T14:28:32;6.80;93.50
31729;DHT22;18309;43.658;1.312;2023-01-24T14:31:13;6.90;94.50
31729;DHT22;18309;43.658;1.312;2023-01-24T14:33:45;6.90;94.10
31729;DHT22;18309;43.658;1.312;2023-01-24T14:36:35;6.90;94.20
31729;DHT22;18309;43.658;1.312;2023-01-24T14:41:45;7.00;93.70
31729;DHT22;18309;43.658;1.312;2023-01-24T14:44:23;7.10;93.80
31729;DHT22;18309;43.658;1.312;2023-01-24T14:46:55;7.10;94.10
31729;DHT22;18309;43.658;1.312;2023-01-24T14:51:55;7.30;93.20
31729;DHT22;18309;43.658;1.312;2023-01-24T14:54:23;7.20;93.30
31729;DHT22;18309;43.658;1.312;2023-01-24T14:56:49;7.00;92.90
31729;DHT22;18309;43.658;1.312;2023-01-24T14:59:18;7.00;93.80
31729;DHT22;18309;43.658;1.312;2023-01-24T15:01:48;7.10;94.70
31729;DHT22;18309;43.658;1.312;2023-01-24T15:04:28;7.50;94.20
31729;DHT22;18309;43.658;1.312;2023-01-24T15:09:30;7.40;94.00
31729;DHT22;18309;43.658;1.312;2023-01-24T15:11:56;7.30;93.60
31729;DHT22;18309;43.658;1.312;2023-01-24T15:14:22;7.40;94.40
31729;DHT22;18309;43.658;1.312;2023-01-24T15:16:54;7.60;94.50
31729;DHT22;18309;43.658;1.312;2023-01-24T15:19:23;8.10;94.00
31729;DHT22;18309;43.658;1.312;2023-01-24T15:21:50;8.00;94.10
31729;DHT22;18309;43.658;1.312;2023-01-24T15:24:26;8.00;94.20
31729;DHT22;18309;43.658;1.312;2023-01-24T15:26:52;7.70;94.30
31729;DHT22;18309;43.658;1.312;2023-01-24T15:32:20;7.30;95.70
31729;DHT22;18309;43.658;1.312;2023-01-24T15:34:46;7.10;95.40
31729;DHT22;18309;43.658;1.312;2023-01-24T15:37:15;7.10;95.80
31729;DHT22;18309;43.658;1.312;2023-01-24T15:39:42;7.00;96.10
31729;DHT22;18309;43.658;1.312;2023-01-24T15:42:16;7.00;96.10
31729;DHT22;18309;43.658;1.312;2023-01-24T15:45:02;7.00;96.30
31729;DHT22;18309;43.658;1.312;2023-01-24T15:47:28;6.90;96.00
31729;DHT22;18309;43.658;1.312;2023-01-24T15:50:18;6.80;95.90
31729;DHT22;18309;43.658;1.312;2023-01-24T15:55:37;6.70;96.10
31729;DHT22;18309;43.658;1.312;2023-01-24T15:58:03;6.60;96.20
31729;DHT22;18309;43.658;1.312;2023-01-24T16:00:29;6.60;96.20
31729;DHT22;18309;43.658;1.312;2023-01-24T16:02:55;6.60;95.90
31729;DHT22;18309;43.658;1.312;2023-01-24T16:05:21;6.50;96.90
31729;DHT22;18309;43.658;1.312;2023-01-24T16:07:47;6.50;96.90
31729;DHT22;18309;43.658;1.312;2023-01-24T16:13:32;6.40;97.40
31729;DHT22;18309;43.658;1.312;2023-01-24T16:16:00;6.30;97.30
31729;DHT22;18309;43.658;1.312;2023-01-24T16:18:26;6.30;97.60
31729;DHT22;18309;43.658;1.312;2023-01-24T16:20:52;6.30;96.60
31729;DHT22;18309;43.658;1.312;2023-01-24T16:23:18;6.30;96.60
31729;DHT22;18309;43.658;1.312;2023-01-24T16:25:46;6.20;96.50
31729;DHT22;18309;43.658;1.312;2023-01-24T16:28:21;6.20;97.00
31729;DHT22;18309;43.658;1.312;2023-01-24T16:30:48;6.20;97.10
31729;DHT22;18309;43.658;1.312;2023-01-24T16:33:18;6.20;97.10
31729;DHT22;18309;43.658;1.312;2023-01-24T16:35:44;6.20;97.20
31729;DHT22;18309;43.658;1.312;2023-01-24T16:38:12;6.10;97.50
31729;DHT22;18309;43.658;1.312;2023-01-24T16:44:34;6.00;97.30
31729;DHT22;18309;43.658;1.312;2023-01-24T16:46:59;5.90;98.60
31729;DHT22;18309;43.658;1.312;2023-01-24T16:49:25;5.90;97.80
31729;DHT22;18309;43.658;1.312;2023-01-24T16:51:51;6.00;99.80
31729;DHT22;18309;43.658;1.312;2023-01-24T16:54:16;6.10;99.70
31729;DHT22;18309;43.658;1.312;2023-01-24T16:56:42;6.20;99.30
31729;DHT22;18309;43.658;1.312;2023-01-24T16:59:10;6.20;99.10
31729;DHT22;18309;43.658;1.312;2023-01-24T17:01:35;6.30;99.20
31729;DHT22;18309;43.658;1.312;2023-01-24T17:04:01;6.30;98.50
31729;DHT22;18309;43.658;1.312;2023-01-24T17:06:28;6.30;98.30
31729;DHT22;18309;43.658;1.312;2023-01-24T17:08:54;6.30;97.90
31729;DHT22;18309;43.658;1.312;2023-01-24T17:11:19;6.30;97.80
31729;DHT22;18309;43.658;1.312;2023-01-24T17:13:48;6.30;97.90
31729;DHT22;18309;43.658;1.312;2023-01-24T17:16:14;6.30;98.10
31729;DHT22;18309;43.658;1.312;2023-01-24T17:18:40;6.20;98.20
31729;DHT22;18309;43.658;1.312;2023-01-24T17:21:11;6.20;98.00
31729;DHT22;18309;43.658;1.312;2023-01-24T17:23:37;6.20;97.80
31729;DHT22;18309;43.658;1.312;2023-01-24T17:26:12;6.20;97.90
31729;DHT22;18309;43.658;1.312;2023-01-24T17:28:39;6.20;97.90
31729;DHT22;18309;43.658;1.312;2023-01-24T17:31:15;6.10;97.90
31729;DHT22;18309;43.658;1.312;2023-01-24T17:33:42;6.10;98.10
31729;DHT22;18309;43.658;1.312;2023-01-24T17:36:08;6.10;98.10
31729;DHT22;18309;43.658;1.312;2023-01-24T17:38:35;6.10;98.20
31729;DHT22;18309;43.658;1.312;2023-01-24T17:41:01;6.10;98.00
31729;DHT22;18309;43.658;1.312;2023-01-24T17:43:27;6.10;98.20
31729;DHT22;18309;43.658;1.312;2023-01-24T17:45:58;6.00;98.40
31729;DHT22;18309;43.658;1.312;2023-01-24T17:48:25;6.00;98.40
31729;DHT22;18309;43.658;1.312;2023-01-24T17:50:52;6.00;98.40
31729;DHT22;18309;43.658;1.312;2023-01-24T17:53:18;6.00;98.40
31729;DHT22;18309;43.658;1.312;2023-01-24T17:55:45;5.90;98.20
31729;DHT22;18309;43.658;1.312;2023-01-24T17:58:11;6.00;98.50
31729;DHT22;18309;43.658;1.312;2023-01-24T18:00:37;5.90;98.40
31729;DHT22;18309;43.658;1.312;2023-01-24T18:03:03;5.90;98.40
31729;DHT22;18309;43.658;1.312;2023-01-24T18:05:32;5.90;98.40
31729;DHT22;18309;43.658;1.312;2023-01-24T18:07:58;5.80;98.40
31729;DHT22;18309;43.658;1.312;2023-01-24T18:10:23;5.80;98.50
31729;DHT22;18309;43.658;1.312;2023-01-24T18:12:49;5.80;98.50
31729;DHT22;18309;43.658;1.312;2023-01-24T18:15:35;5.80;98.40
31729;DHT22;18309;43.658;1.312;2023-01-24T18:18:09;5.80;98.50
31729;DHT22;18309;43.658;1.312;2023-01-24T18:20:41;5.80;98.40
31729;DHT22;18309;43.658;1.312;2023-01-24T18:23:27;5.70;98.50
31729;DHT22;18309;43.658;1.312;2023-01-24T18:25:59;5.70;98.60